sensor_id;sensor_type;location;lat;lon;timestamp;P1;durP1;ratioP1;P2;durP2;ratioP2
57643;SDS011;43474;46.510;6.686;2024-03-17T00:02:02;1.02;;;0.40;;
57643;SDS011;43474;46.510;6.686;2024-03-17T00:04:28;0.95;;;0.60;;
57643;SDS011;43474;46.510;6.686;2024-03-17T00:06:54;0.65;;;0.40;;
57643;SDS011;43474;46.510;6.686;2024-03-17T00:09:19;1.15;;;0.98;;
57643;SDS011;43474;46.510;6.686;2024-03-17T00:11:45;0.95;;;0.65;;
57643;SDS011;43474;46.510;6.686;2024-03-17T00:14:11;1.38;;;0.80;;
57643;SDS011;43474;46.510;6.686;2024-03-17T00:16:37;0.63;;;0.63;;
57643;SDS011;43474;46.510;6.686;2024-03-17T00:19:03;0.50;;;0.43;;
57643;SDS011;43474;46.510;6.686;2024-03-17T00:21:28;3.03;;;0.68;;
57643;SDS011;43474;46.510;6.686;2024-03-17T00:23:54;1.75;;;0.70;;
57643;SDS011;43474;46.510;6.686;2024-03-17T00:26:20;0.28;;;0.28;;
57643;SDS011;43474;46.510;6.686;2024-03-17T00:28:46;1.23;;;0.50;;
57643;SDS011;43474;46.510;6.686;2024-03-17T00:31:14;1.13;;;0.60;;
57643;SDS011;43474;46.510;6.686;2024-03-17T00:33:40;1.52;;;0.75;;
57643;SDS011;43474;46.510;6.686;2024-03-17T00:36:06;1.95;;;0.77;;
57643;SDS011;43474;46.510;6.686;2024-03-17T00:38:32;1.60;;;0.28;;
57643;SDS011;43474;46.510;6.686;2024-03-17T00:40:59;0.70;;;0.35;;
57643;SDS011;43474;46.510;6.686;2024-03-17T00:43:24;0.52;;;0.38;;
57643;SDS011;43474;46.510;6.686;2024-03-17T00:45:53;0.90;;;0.60;;
57643;SDS011;43474;46.510;6.686;2024-03-17T00:48:19;0.35;;;0.35;;
57643;SDS011;43474;46.510;6.686;2024-03-17T00:50:45;0.73;;;0.40;;
57643;SDS011;43474;46.510;6.686;2024-03-17T00:53:11;2.65;;;0.73;;
57643;SDS011;43474;46.510;6.686;2024-03-17T00:55:37;2.83;;;0.55;;
57643;SDS011;43474;46.510;6.686;2024-03-17T00:58:03;0.85;;;0.63;;
57643;SDS011;43474;46.510;6.686;2024-03-17T01:00:29;0.30;;;0.20;;
57643;SDS011;43474;46.510;6.686;2024-03-17T01:02:55;0.90;;;0.45;;
57643;SDS011;43474;46.510;6.686;2024-03-17T01:05:21;0.30;;;0.20;;
57643;SDS011;43474;46.510;6.686;2024-03-17T01:07:47;0.88;;;0.32;;
57643;SDS011;43474;46.510;6.686;2024-03-17T01:10:14;0.90;;;0.30;;
57643;SDS011;43474;46.510;6.686;2024-03-17T01:12:39;0.17;;;0.17;;
57643;SDS011;43474;46.510;6.686;2024-03-17T01:15:05;0.40;;;0.30;;
57643;SDS011;43474;46.510;6.686;2024-03-17T01:17:31;0.55;;;0.47;;
57643;SDS011;43474;46.510;6.686;2024-03-17T01:19:58;2.22;;;0.65;;
57643;SDS011;43474;46.510;6.686;2024-03-17T01:22:23;1.33;;;0.68;;
57643;SDS011;43474;46.510;6.686;2024-03-17T01:24:49;4.32;;;0.50;;
57643;SDS011;43474;46.510;6.686;2024-03-17T01:27:15;1.08;;;0.50;;
57643;SDS011;43474;46.510;6.686;2024-03-17T01:29:42;0.75;;;0.52;;
57643;SDS011;43474;46.510;6.686;2024-03-17T01:32:08;1.00;;;0.80;;
57643;SDS011;43474;46.510;6.686;2024-03-17T01:34:35;0.60;;;0.30;;
57643;SDS011;43474;46.510;6.686;2024-03-17T01:37:00;0.95;;;0.60;;
57643;SDS011;43474;46.510;6.686;2024-03-17T01:39:26;0.60;;;0.22;;
57643;SDS011;43474;46.510;6.686;2024-03-17T01:41:51;0.80;;;0.20;;
57643;SDS011;43474;46.510;6.686;2024-03-17T01:44:27;6.45;;;0.20;;
57643;SDS011;43474;46.510;6.686;2024-03-17T01:46:54;2.63;;;0.63;;
57643;SDS011;43474;46.510;6.686;2024-03-17T01:49:21;0.52;;;0.40;;
57643;SDS011;43474;46.510;6.686;2024-03-17T01:51:48;0.43;;;0.40;;
57643;SDS011;43474;46.510;6.686;2024-03-17T01:54:15;0.45;;;0.25;;
57643;SDS011;43474;46.510;6.686;2024-03-17T01:56:42;0.65;;;0.38;;
57643;SDS011;43474;46.510;6.686;2024-03-17T01:59:09;1.42;;;0.55;;
57643;SDS011;43474;46.510;6.686;2024-03-17T02:01:38;0.50;;;0.38;;
57643;SDS011;43474;46.510;6.686;2024-03-17T02:04:04;1.50;;;0.65;;
57643;SDS011;43474;46.510;6.686;2024-03-17T02:06:30;1.27;;;0.55;;
57643;SDS011;43474;46.510;6.686;2024-03-17T02:08:57;0.65;;;0.30;;
57643;SDS011;43474;46.510;6.686;2024-03-17T02:11:30;1.38;;;0.90;;
57643;SDS011;43474;46.510;6.686;2024-03-17T02:13:57;2.22;;;0.50;;
57643;SDS011;43474;46.510;6.686;2024-03-17T02:16:26;0.63;;;0.63;;
57643;SDS011;43474;46.510;6.686;2024-03-17T02:18:55;0.43;;;0.40;;
57643;SDS011;43474;46.510;6.686;2024-03-17T02:21:22;1.17;;;0.60;;
57643;SDS011;43474;46.510;6.686;2024-03-17T02:23:50;0.68;;;0.45;;
57643;SDS011;43474;46.510;6.686;2024-03-17T02:26:16;1.60;;;0.55;;
57643;SDS011;43474;46.510;6.686;2024-03-17T02:28:44;0.22;;;0.22;;
57643;SDS011;43474;46.510;6.686;2024-03-17T02:31:11;0.93;;;0.28;;
57643;SDS011;43474;46.510;6.686;2024-03-17T02:33:37;0.22;;;0.22;;
57643;SDS011;43474;46.510;6.686;2024-03-17T02:36:04;1.17;;;0.20;;
57643;SDS011;43474;46.510;6.686;2024-03-17T02:38:33;0.98;;;0.22;;
57643;SDS011;43474;46.510;6.686;2024-03-17T02:41:18;1.13;;;0.28;;
57643;SDS011;43474;46.510;6.686;2024-03-17T02:43:44;0.38;;;0.30;;
57643;SDS011;43474;46.510;6.686;2024-03-17T02:46:14;0.20;;;0.10;;
57643;SDS011;43474;46.510;6.686;2024-03-17T02:48:41;0.63;;;0.37;;
57643;SDS011;43474;46.510;6.686;2024-03-17T02:51:10;0.85;;;0.20;;
57643;SDS011;43474;46.510;6.686;2024-03-17T02:53:38;0.30;;;0.30;;
57643;SDS011;43474;46.510;6.686;2024-03-17T02:56:04;0.57;;;0.45;;
57643;SDS011;43474;46.510;6.686;2024-03-17T02:58:33;3.53;;;0.90;;
57643;SDS011;43474;46.510;6.686;2024-03-17T03:01:05;0.20;;;0.20;;
57643;SDS011;43474;46.510;6.686;2024-03-17T03:03:34;0.15;;;0.15;;
57643;SDS011;43474;46.510;6.686;2024-03-17T03:06:01;0.45;;;0.30;;
57643;SDS011;43474;46.510;6.686;2024-03-17T03:08:32;1.75;;;0.63;;
57643;SDS011;43474;46.510;6.686;2024-03-17T03:10:57;0.45;;;0.28;;
57643;SDS011;43474;46.510;6.686;2024-03-17T03:13:23;0.20;;;0.17;;
57643;SDS011;43474;46.510;6.686;2024-03-17T03:15:48;0.40;;;0.40;;
57643;SDS011;43474;46.510;6.686;2024-03-17T03:18:15;1.45;;;0.20;;
57643;SDS011;43474;46.510;6.686;2024-03-17T03:20:40;2.50;;;0.28;;
57643;SDS011;43474;46.510;6.686;2024-03-17T03:23:06;0.55;;;0.50;;
57643;SDS011;43474;46.510;6.686;2024-03-17T03:25:32;2.28;;;0.52;;
57643;SDS011;43474;46.510;6.686;2024-03-17T03:27:58;0.55;;;0.30;;
57643;SDS011;43474;46.510;6.686;2024-03-17T03:30:24;0.52;;;0.40;;
57643;SDS011;43474;46.510;6.686;2024-03-17T03:32:50;0.55;;;0.30;;
57643;SDS011;43474;46.510;6.686;2024-03-17T03:35:15;1.75;;;0.68;;
57643;SDS011;43474;46.510;6.686;2024-03-17T03:37:42;1.77;;;0.47;;
57643;SDS011;43474;46.510;6.686;2024-03-17T03:40:08;2.22;;;0.50;;
57643;SDS011;43474;46.510;6.686;2024-03-17T03:42:44;5.97;;;0.77;;
57643;SDS011;43474;46.510;6.686;2024-03-17T03:45:10;0.90;;;0.32;;
57643;SDS011;43474;46.510;6.686;2024-03-17T03:47:41;0.32;;;0.32;;
57643;SDS011;43474;46.510;6.686;2024-03-17T03:50:08;0.70;;;0.30;;
57643;SDS011;43474;46.510;6.686;2024-03-17T03:52:38;0.20;;;0.13;;
57643;SDS011;43474;46.510;6.686;2024-03-17T03:55:06;0.30;;;0.30;;
57643;SDS011;43474;46.510;6.686;2024-03-17T03:57:36;1.10;;;0.73;;
57643;SDS011;43474;46.510;6.686;2024-03-17T04:00:02;0.38;;;0.30;;
57643;SDS011;43474;46.510;6.686;2024-03-17T04:02:38;0.10;;;0.08;;
57643;SDS011;43474;46.510;6.686;2024-03-17T04:05:04;0.43;;;0.43;;
57643;SDS011;43474;46.510;6.686;2024-03-17T04:07:30;0.47;;;0.47;;
57643;SDS011;43474;46.510;6.686;2024-03-17T04:09:56;1.83;;;0.50;;
57643;SDS011;43474;46.510;6.686;2024-03-17T04:12:23;1.92;;;0.50;;
57643;SDS011;43474;46.510;6.686;2024-03-17T04:14:50;0.30;;;0.20;;
57643;SDS011;43474;46.510;6.686;2024-03-17T04:17:19;0.40;;;0.22;;
57643;SDS011;43474;46.510;6.686;2024-03-17T04:19:47;3.75;;;0.57;;
57643;SDS011;43474;46.510;6.686;2024-03-17T04:22:14;0.20;;;0.10;;
57643;SDS011;43474;46.510;6.686;2024-03-17T04:24:42;0.73;;;0.60;;
57643;SDS011;43474;46.510;6.686;2024-03-17T04:27:09;0.65;;;0.60;;
57643;SDS011;43474;46.510;6.686;2024-03-17T04:29:34;4.50;;;0.63;;
57643;SDS011;43474;46.510;6.686;2024-03-17T04:32:00;0.30;;;0.30;;
57643;SDS011;43474;46.510;6.686;2024-03-17T04:34:26;0.22;;;0.22;;
57643;SDS011;43474;46.510;6.686;2024-03-17T04:36:53;0.85;;;0.30;;
57643;SDS011;43474;46.510;6.686;2024-03-17T04:39:21;3.00;;;0.90;;
57643;SDS011;43474;46.510;6.686;2024-03-17T04:41:47;0.60;;;0.45;;
57643;SDS011;43474;46.510;6.686;2024-03-17T04:44:13;1.60;;;0.98;;
57643;SDS011;43474;46.510;6.686;2024-03-17T04:46:39;0.50;;;0.45;;
57643;SDS011;43474;46.510;6.686;2024-03-17T04:49:05;1.52;;;0.65;;
57643;SDS011;43474;46.510;6.686;2024-03-17T04:51:31;1.65;;;0.70;;
57643;SDS011;43474;46.510;6.686;2024-03-17T04:53:58;1.70;;;0.40;;
57643;SDS011;43474;46.510;6.686;2024-03-17T04:56:24;2.83;;;0.85;;
57643;SDS011;43474;46.510;6.686;2024-03-17T04:58:50;0.30;;;0.25;;
57643;SDS011;43474;46.510;6.686;2024-03-17T05:01:16;0.65;;;0.35;;
57643;SDS011;43474;46.510;6.686;2024-03-17T05:03:42;0.47;;;0.47;;
57643;SDS011;43474;46.510;6.686;2024-03-17T05:06:08;5.15;;;1.17;;
57643;SDS011;43474;46.510;6.686;2024-03-17T05:08:33;0.28;;;0.28;;
57643;SDS011;43474;46.510;6.686;2024-03-17T05:11:03;0.38;;;0.20;;
57643;SDS011;43474;46.510;6.686;2024-03-17T05:13:30;0.10;;;0.10;;
57643;SDS011;43474;46.510;6.686;2024-03-17T05:15:56;0.30;;;0.20;;
57643;SDS011;43474;46.510;6.686;2024-03-17T05:18:23;0.40;;;0.30;;
57643;SDS011;43474;46.510;6.686;2024-03-17T05:21:01;2.28;;;0.50;;
57643;SDS011;43474;46.510;6.686;2024-03-17T05:23:29;1.70;;;0.57;;
57643;SDS011;43474;46.510;6.686;2024-03-17T05:25:59;3.33;;;0.60;;
57643;SDS011;43474;46.510;6.686;2024-03-17T05:28:26;0.40;;;0.32;;
57643;SDS011;43474;46.510;6.686;2024-03-17T05:30:53;0.40;;;0.40;;
57643;SDS011;43474;46.510;6.686;2024-03-17T05:33:19;3.60;;;0.68;;
57643;SDS011;43474;46.510;6.686;2024-03-17T05:35:50;3.38;;;0.40;;
57643;SDS011;43474;46.510;6.686;2024-03-17T05:38:20;3.33;;;0.90;;
57643;SDS011;43474;46.510;6.686;2024-03-17T05:40:53;0.95;;;0.70;;
57643;SDS011;43474;46.510;6.686;2024-03-17T05:43:20;0.95;;;0.60;;
57643;SDS011;43474;46.510;6.686;2024-03-17T05:45:47;2.53;;;0.70;;
57643;SDS011;43474;46.510;6.686;2024-03-17T05:48:12;1.60;;;0.75;;
57643;SDS011;43474;46.510;6.686;2024-03-17T05:50:38;0.82;;;0.50;;
57643;SDS011;43474;46.510;6.686;2024-03-17T05:53:04;11.88;;;0.57;;
57643;SDS011;43474;46.510;6.686;2024-03-17T05:55:30;0.35;;;0.30;;
57643;SDS011;43474;46.510;6.686;2024-03-17T05:57:56;1.25;;;0.60;;
57643;SDS011;43474;46.510;6.686;2024-03-17T06:00:24;0.88;;;0.70;;
57643;SDS011;43474;46.510;6.686;2024-03-17T06:02:50;2.55;;;1.00;;
57643;SDS011;43474;46.510;6.686;2024-03-17T06:05:15;3.80;;;1.23;;
57643;SDS011;43474;46.510;6.686;2024-03-17T06:07:41;1.13;;;0.52;;
57643;SDS011;43474;46.510;6.686;2024-03-17T06:10:08;1.17;;;0.68;;
57643;SDS011;43474;46.510;6.686;2024-03-17T06:12:33;1.17;;;0.50;;
57643;SDS011;43474;46.510;6.686;2024-03-17T06:14:59;0.28;;;0.20;;
57643;SDS011;43474;46.510;6.686;2024-03-17T06:17:27;0.73;;;0.50;;
57643;SDS011;43474;46.510;6.686;2024-03-17T06:19:53;0.50;;;0.38;;
57643;SDS011;43474;46.510;6.686;2024-03-17T06:22:18;0.75;;;0.47;;
57643;SDS011;43474;46.510;6.686;2024-03-17T06:24:44;0.50;;;0.40;;
57643;SDS011;43474;46.510;6.686;2024-03-17T06:27:10;0.52;;;0.52;;
57643;SDS011;43474;46.510;6.686;2024-03-17T06:29:35;1.23;;;0.77;;
57643;SDS011;43474;46.510;6.686;2024-03-17T06:32:01;5.78;;;0.75;;
57643;SDS011;43474;46.510;6.686;2024-03-17T06:34:27;1.85;;;0.38;;
57643;SDS011;43474;46.510;6.686;2024-03-17T06:36:53;0.90;;;0.60;;
57643;SDS011;43474;46.510;6.686;2024-03-17T06:39:18;0.40;;;0.40;;
57643;SDS011;43474;46.510;6.686;2024-03-17T06:41:46;1.17;;;0.50;;
57643;SDS011;43474;46.510;6.686;2024-03-17T06:44:12;0.98;;;0.50;;
57643;SDS011;43474;46.510;6.686;2024-03-17T06:46:38;0.45;;;0.32;;
57643;SDS011;43474;46.510;6.686;2024-03-17T06:49:03;0.63;;;0.45;;
57643;SDS011;43474;46.510;6.686;2024-03-17T06:51:29;1.13;;;0.68;;
57643;SDS011;43474;46.510;6.686;2024-03-17T06:53:55;0.70;;;0.50;;
57643;SDS011;43474;46.510;6.686;2024-03-17T06:56:20;0.70;;;0.43;;
57643;SDS011;43474;46.510;6.686;2024-03-17T06:58:46;2.45;;;0.70;;
57643;SDS011;43474;46.510;6.686;2024-03-17T07:01:12;1.40;;;0.47;;
57643;SDS011;43474;46.510;6.686;2024-03-17T07:03:38;0.60;;;0.50;;
57643;SDS011;43474;46.510;6.686;2024-03-17T07:06:04;1.60;;;0.60;;
57643;SDS011;43474;46.510;6.686;2024-03-17T07:08:31;0.65;;;0.60;;
57643;SDS011;43474;46.510;6.686;2024-03-17T07:10:57;1.05;;;0.68;;
57643;SDS011;43474;46.510;6.686;2024-03-17T07:13:35;3.47;;;1.00;;
57643;SDS011;43474;46.510;6.686;2024-03-17T07:16:02;1.35;;;0.85;;
57643;SDS011;43474;46.510;6.686;2024-03-17T07:18:31;1.48;;;0.60;;
57643;SDS011;43474;46.510;6.686;2024-03-17T07:20:58;1.25;;;0.85;;
57643;SDS011;43474;46.510;6.686;2024-03-17T07:23:25;0.70;;;0.63;;
57643;SDS011;43474;46.510;6.686;2024-03-17T07:25:51;1.75;;;0.82;;
57643;SDS011;43474;46.510;6.686;2024-03-17T07:28:27;2.17;;;1.15;;
57643;SDS011;43474;46.510;6.686;2024-03-17T07:30:53;0.93;;;0.88;;
57643;SDS011;43474;46.510;6.686;2024-03-17T07:33:21;1.17;;;0.70;;
57643;SDS011;43474;46.510;6.686;2024-03-17T07:35:51;2.05;;;0.85;;
57643;SDS011;43474;46.510;6.686;2024-03-17T07:38:20;1.65;;;0.90;;
57643;SDS011;43474;46.510;6.686;2024-03-17T07:40:54;3.10;;;1.10;;
57643;SDS011;43474;46.510;6.686;2024-03-17T07:43:23;2.42;;;1.20;;
57643;SDS011;43474;46.510;6.686;2024-03-17T07:46:02;6.53;;;1.13;;
57643;SDS011;43474;46.510;6.686;2024-03-17T07:48:30;3.83;;;1.08;;
57643;SDS011;43474;46.510;6.686;2024-03-17T07:51:10;3.90;;;1.08;;
57643;SDS011;43474;46.510;6.686;2024-03-17T07:53:37;2.87;;;1.50;;
57643;SDS011;43474;46.510;6.686;2024-03-17T07:56:04;2.08;;;1.20;;
57643;SDS011;43474;46.510;6.686;2024-03-17T07:58:37;5.60;;;1.65;;
57643;SDS011;43474;46.510;6.686;2024-03-17T08:01:11;3.40;;;1.33;;
57643;SDS011;43474;46.510;6.686;2024-03-17T08:03:42;4.72;;;1.63;;
57643;SDS011;43474;46.510;6.686;2024-03-17T08:06:11;3.55;;;1.40;;
57643;SDS011;43474;46.510;6.686;2024-03-17T08:08:37;4.90;;;1.48;;
57643;SDS011;43474;46.510;6.686;2024-03-17T08:11:03;4.18;;;1.80;;
57643;SDS011;43474;46.510;6.686;2024-03-17T08:13:32;2.45;;;1.17;;
57643;SDS011;43474;46.510;6.686;2024-03-17T08:16:03;2.05;;;1.52;;
57643;SDS011;43474;46.510;6.686;2024-03-17T08:18:36;5.28;;;1.70;;
57643;SDS011;43474;46.510;6.686;2024-03-17T08:21:03;3.67;;;1.27;;
57643;SDS011;43474;46.510;6.686;2024-03-17T08:23:30;2.45;;;1.52;;
57643;SDS011;43474;46.510;6.686;2024-03-17T08:25:57;5.57;;;1.33;;
57643;SDS011;43474;46.510;6.686;2024-03-17T08:28:24;1.85;;;1.35;;
57643;SDS011;43474;46.510;6.686;2024-03-17T08:30:55;4.22;;;1.30;;
57643;SDS011;43474;46.510;6.686;2024-03-17T08:33:22;4.13;;;1.52;;
57643;SDS011;43474;46.510;6.686;2024-03-17T08:35:55;3.00;;;1.55;;
57643;SDS011;43474;46.510;6.686;2024-03-17T08:38:22;2.80;;;1.88;;
57643;SDS011;43474;46.510;6.686;2024-03-17T08:40:51;6.32;;;1.60;;
57643;SDS011;43474;46.510;6.686;2024-03-17T08:43:18;2.33;;;1.25;;
57643;SDS011;43474;46.510;6.686;2024-03-17T08:45:45;2.60;;;1.60;;
57643;SDS011;43474;46.510;6.686;2024-03-17T08:48:19;2.03;;;1.27;;
57643;SDS011;43474;46.510;6.686;2024-03-17T08:50:51;2.53;;;0.73;;
57643;SDS011;43474;46.510;6.686;2024-03-17T08:53:19;2.83;;;0.73;;
57643;SDS011;43474;46.510;6.686;2024-03-17T08:55:45;3.10;;;1.55;;
57643;SDS011;43474;46.510;6.686;2024-03-17T08:58:11;1.67;;;1.33;;
57643;SDS011;43474;46.510;6.686;2024-03-17T09:00:36;5.30;;;1.23;;
57643;SDS011;43474;46.510;6.686;2024-03-17T09:03:06;1.17;;;0.90;;
57643;SDS011;43474;46.510;6.686;2024-03-17T09:05:42;1.05;;;0.95;;
57643;SDS011;43474;46.510;6.686;2024-03-17T09:08:14;3.80;;;1.23;;
57643;SDS011;43474;46.510;6.686;2024-03-17T09:10:43;2.67;;;1.35;;
57643;SDS011;43474;46.510;6.686;2024-03-17T09:13:16;3.85;;;1.17;;
57643;SDS011;43474;46.510;6.686;2024-03-17T09:15:57;0.90;;;0.70;;
57643;SDS011;43474;46.510;6.686;2024-03-17T09:18:30;3.92;;;1.13;;
57643;SDS011;43474;46.510;6.686;2024-03-17T09:20:57;5.63;;;1.75;;
57643;SDS011;43474;46.510;6.686;2024-03-17T09:23:24;1.77;;;1.33;;
57643;SDS011;43474;46.510;6.686;2024-03-17T09:26:03;5.60;;;1.67;;
57643;SDS011;43474;46.510;6.686;2024-03-17T09:28:33;6.35;;;1.50;;
57643;SDS011;43474;46.510;6.686;2024-03-17T09:31:01;1.92;;;1.05;;
57643;SDS011;43474;46.510;6.686;2024-03-17T09:33:34;1.75;;;1.30;;
57643;SDS011;43474;46.510;6.686;2024-03-17T09:36:02;3.25;;;1.10;;
57643;SDS011;43474;46.510;6.686;2024-03-17T09:38:34;4.07;;;1.40;;
57643;SDS011;43474;46.510;6.686;2024-03-17T09:41:01;2.60;;;1.20;;
57643;SDS011;43474;46.510;6.686;2024-03-17T09:43:32;3.17;;;1.70;;
57643;SDS011;43474;46.510;6.686;2024-03-17T09:45:58;1.67;;;1.10;;
57643;SDS011;43474;46.510;6.686;2024-03-17T09:48:27;2.22;;;1.35;;
57643;SDS011;43474;46.510;6.686;2024-03-17T09:50:56;3.97;;;1.40;;
57643;SDS011;43474;46.510;6.686;2024-03-17T09:53:33;2.78;;;1.15;;
57643;SDS011;43474;46.510;6.686;2024-03-17T09:56:08;3.85;;;1.02;;
57643;SDS011;43474;46.510;6.686;2024-03-17T09:58:39;1.58;;;1.05;;
57643;SDS011;43474;46.510;6.686;2024-03-17T10:01:05;1.15;;;0.90;;
57643;SDS011;43474;46.510;6.686;2024-03-17T10:03:44;2.67;;;1.50;;
57643;SDS011;43474;46.510;6.686;2024-03-17T10:06:18;5.10;;;1.13;;
57643;SDS011;43474;46.510;6.686;2024-03-17T10:08:47;5.00;;;1.55;;
57643;SDS011;43474;46.510;6.686;2024-03-17T10:11:17;2.80;;;0.93;;
57643;SDS011;43474;46.510;6.686;2024-03-17T10:13:45;2.70;;;1.40;;
57643;SDS011;43474;46.510;6.686;2024-03-17T10:16:24;4.80;;;1.57;;
57643;SDS011;43474;46.510;6.686;2024-03-17T10:19:08;2.13;;;1.40;;
57643;SDS011;43474;46.510;6.686;2024-03-17T10:21:45;3.45;;;1.20;;
57643;SDS011;43474;46.510;6.686;2024-03-17T10:24:31;1.40;;;1.00;;
57643;SDS011;43474;46.510;6.686;2024-03-17T10:26:59;1.90;;;1.25;;
57643;SDS011;43474;46.510;6.686;2024-03-17T10:29:33;1.00;;;0.90;;
57643;SDS011;43474;46.510;6.686;2024-03-17T10:32:19;2.97;;;1.30;;
57643;SDS011;43474;46.510;6.686;2024-03-17T10:38:15;1.90;;;1.25;;
57643;SDS011;43474;46.510;6.686;2024-03-17T10:40:43;1.52;;;0.95;;
57643;SDS011;43474;46.510;6.686;2024-03-17T10:43:11;3.63;;;1.35;;
57643;SDS011;43474;46.510;6.686;2024-03-17T10:45:38;1.95;;;0.75;;
57643;SDS011;43474;46.510;6.686;2024-03-17T10:48:15;6.18;;;1.17;;
57643;SDS011;43474;46.510;6.686;2024-03-17T10:50:58;3.03;;;1.00;;
57643;SDS011;43474;46.510;6.686;2024-03-17T10:53:32;2.67;;;1.60;;
57643;SDS011;43474;46.510;6.686;2024-03-17T10:56:05;4.32;;;1.38;;
57643;SDS011;43474;46.510;6.686;2024-03-17T10:58:35;1.80;;;0.70;;
57643;SDS011;43474;46.510;6.686;2024-03-17T11:01:07;1.27;;;0.93;;
57643;SDS011;43474;46.510;6.686;2024-03-17T11:03:46;2.65;;;1.15;;
57643;SDS011;43474;46.510;6.686;2024-03-17T11:06:27;3.95;;;1.33;;
57643;SDS011;43474;46.510;6.686;2024-03-17T11:09:36;4.80;;;1.42;;
57643;SDS011;43474;46.510;6.686;2024-03-17T11:23:56;1.20;;;0.68;;
57643;SDS011;43474;46.510;6.686;2024-03-17T11:26:27;2.35;;;1.20;;
57643;SDS011;43474;46.510;6.686;2024-03-17T11:28:55;1.80;;;1.30;;
57643;SDS011;43474;46.510;6.686;2024-03-17T11:34:49;1.80;;;1.17;;
57643;SDS011;43474;46.510;6.686;2024-03-17T11:40:27;2.63;;;0.95;;
57643;SDS011;43474;46.510;6.686;2024-03-17T11:43:00;3.42;;;1.05;;
57643;SDS011;43474;46.510;6.686;2024-03-17T11:45:39;2.22;;;1.08;;
57643;SDS011;43474;46.510;6.686;2024-03-17T11:48:19;9.43;;;1.33;;
57643;SDS011;43474;46.510;6.686;2024-03-17T11:50:49;6.18;;;0.88;;
57643;SDS011;43474;46.510;6.686;2024-03-17T11:53:23;5.60;;;1.40;;
57643;SDS011;43474;46.510;6.686;2024-03-17T11:59:07;3.45;;;1.40;;
57643;SDS011;43474;46.510;6.686;2024-03-17T12:05:15;1.95;;;1.05;;
57643;SDS011;43474;46.510;6.686;2024-03-17T12:07:50;4.37;;;1.13;;
57643;SDS011;43474;46.510;6.686;2024-03-17T12:10:29;2.92;;;0.73;;
57643;SDS011;43474;46.510;6.686;2024-03-17T12:18:41;3.13;;;1.08;;
57643;SDS011;43474;46.510;6.686;2024-03-17T12:21:14;1.65;;;0.77;;
57643;SDS011;43474;46.510;6.686;2024-03-17T12:23:49;3.22;;;0.80;;
57643;SDS011;43474;46.510;6.686;2024-03-17T12:26:35;2.20;;;0.77;;
57643;SDS011;43474;46.510;6.686;2024-03-17T12:29:01;3.08;;;0.98;;
57643;SDS011;43474;46.510;6.686;2024-03-17T12:31:32;2.90;;;0.80;;
57643;SDS011;43474;46.510;6.686;2024-03-17T12:34:07;1.70;;;1.10;;
57643;SDS011;43474;46.510;6.686;2024-03-17T12:36:38;1.73;;;0.70;;
57643;SDS011;43474;46.510;6.686;2024-03-17T12:39:38;2.13;;;0.82;;
57643;SDS011;43474;46.510;6.686;2024-03-17T12:42:13;1.20;;;0.88;;
57643;SDS011;43474;46.510;6.686;2024-03-17T12:44:47;1.77;;;0.82;;
57643;SDS011;43474;46.510;6.686;2024-03-17T12:47:23;1.98;;;0.90;;
57643;SDS011;43474;46.510;6.686;2024-03-17T12:52:55;0.93;;;0.57;;
57643;SDS011;43474;46.510;6.686;2024-03-17T12:55:34;0.82;;;0.70;;
57643;SDS011;43474;46.510;6.686;2024-03-17T12:58:38;1.27;;;0.88;;
57643;SDS011;43474;46.510;6.686;2024-03-17T13:01:38;1.38;;;0.88;;
57643;SDS011;43474;46.510;6.686;2024-03-17T13:04:05;2.92;;;1.10;;
57643;SDS011;43474;46.510;6.686;2024-03-17T13:06:33;1.70;;;0.88;;
57643;SDS011;43474;46.510;6.686;2024-03-17T13:09:02;3.35;;;0.80;;
57643;SDS011;43474;46.510;6.686;2024-03-17T13:11:37;1.92;;;1.00;;
57643;SDS011;43474;46.510;6.686;2024-03-17T13:14:04;2.80;;;1.20;;
57643;SDS011;43474;46.510;6.686;2024-03-17T13:16:30;1.70;;;0.88;;
57643;SDS011;43474;46.510;6.686;2024-03-17T13:18:59;7.25;;;1.10;;
57643;SDS011;43474;46.510;6.686;2024-03-17T13:21:45;1.73;;;0.77;;
57643;SDS011;43474;46.510;6.686;2024-03-17T13:24:12;2.55;;;0.80;;
57643;SDS011;43474;46.510;6.686;2024-03-17T13:26:46;3.72;;;1.10;;
57643;SDS011;43474;46.510;6.686;2024-03-17T13:29:21;0.63;;;0.55;;
57643;SDS011;43474;46.510;6.686;2024-03-17T13:31:49;3.15;;;1.05;;
57643;SDS011;43474;46.510;6.686;2024-03-17T13:34:16;1.27;;;0.68;;
57643;SDS011;43474;46.510;6.686;2024-03-17T13:36:44;1.48;;;0.77;;
57643;SDS011;43474;46.510;6.686;2024-03-17T13:39:13;1.63;;;1.00;;
57643;SDS011;43474;46.510;6.686;2024-03-17T13:41:43;2.00;;;0.93;;
57643;SDS011;43474;46.510;6.686;2024-03-17T13:44:12;7.57;;;1.20;;
57643;SDS011;43474;46.510;6.686;2024-03-17T13:46:38;1.90;;;1.10;;
57643;SDS011;43474;46.510;6.686;2024-03-17T13:49:22;2.83;;;1.25;;
57643;SDS011;43474;46.510;6.686;2024-03-17T13:51:54;1.88;;;0.90;;
57643;SDS011;43474;46.510;6.686;2024-03-17T13:54:20;1.83;;;1.10;;
57643;SDS011;43474;46.510;6.686;2024-03-17T13:57:13;3.00;;;0.88;;
57643;SDS011;43474;46.510;6.686;2024-03-17T13:59:50;2.33;;;1.30;;
57643;SDS011;43474;46.510;6.686;2024-03-17T14:02:30;1.90;;;1.20;;
57643;SDS011;43474;46.510;6.686;2024-03-17T14:05:05;1.52;;;1.02;;
57643;SDS011;43474;46.510;6.686;2024-03-17T14:07:33;7.55;;;1.13;;
57643;SDS011;43474;46.510;6.686;2024-03-17T14:10:00;1.42;;;0.88;;
57643;SDS011;43474;46.510;6.686;2024-03-17T14:12:26;1.95;;;1.02;;
57643;SDS011;43474;46.510;6.686;2024-03-17T14:17:44;0.88;;;0.65;;
57643;SDS011;43474;46.510;6.686;2024-03-17T14:20:16;1.83;;;1.10;;
57643;SDS011;43474;46.510;6.686;2024-03-17T14:22:44;1.65;;;0.73;;
57643;SDS011;43474;46.510;6.686;2024-03-17T14:25:23;2.30;;;0.98;;
57643;SDS011;43474;46.510;6.686;2024-03-17T14:27:50;1.27;;;1.00;;
57643;SDS011;43474;46.510;6.686;2024-03-17T14:30:17;5.07;;;0.90;;
57643;SDS011;43474;46.510;6.686;2024-03-17T14:32:47;2.28;;;0.95;;
57643;SDS011;43474;46.510;6.686;2024-03-17T14:35:18;1.77;;;1.00;;
57643;SDS011;43474;46.510;6.686;2024-03-17T14:37:48;2.83;;;0.88;;
57643;SDS011;43474;46.510;6.686;2024-03-17T14:40:15;2.22;;;1.02;;
57643;SDS011;43474;46.510;6.686;2024-03-17T14:42:53;1.35;;;0.70;;
57643;SDS011;43474;46.510;6.686;2024-03-17T14:45:19;2.15;;;0.75;;
57643;SDS011;43474;46.510;6.686;2024-03-17T14:47:45;0.90;;;0.70;;
57643;SDS011;43474;46.510;6.686;2024-03-17T14:50:11;1.80;;;0.55;;
57643;SDS011;43474;46.510;6.686;2024-03-17T14:52:40;4.65;;;0.88;;
57643;SDS011;43474;46.510;6.686;2024-03-17T14:55:09;5.05;;;0.90;;
57643;SDS011;43474;46.510;6.686;2024-03-17T14:57:38;3.28;;;0.73;;
57643;SDS011;43474;46.510;6.686;2024-03-17T15:00:05;1.42;;;0.82;;
57643;SDS011;43474;46.510;6.686;2024-03-17T15:02:42;1.90;;;0.95;;
57643;SDS011;43474;46.510;6.686;2024-03-17T15:05:08;2.15;;;1.00;;
57643;SDS011;43474;46.510;6.686;2024-03-17T15:07:35;2.83;;;1.00;;
57643;SDS011;43474;46.510;6.686;2024-03-17T15:10:01;0.55;;;0.55;;
57643;SDS011;43474;46.510;6.686;2024-03-17T15:12:29;0.93;;;0.50;;
57643;SDS011;43474;46.510;6.686;2024-03-17T15:14:54;1.38;;;0.70;;
57643;SDS011;43474;46.510;6.686;2024-03-17T15:17:20;0.90;;;0.70;;
57643;SDS011;43474;46.510;6.686;2024-03-17T15:19:46;1.45;;;0.80;;
57643;SDS011;43474;46.510;6.686;2024-03-17T15:22:13;4.25;;;0.90;;
57643;SDS011;43474;46.510;6.686;2024-03-17T15:24:39;1.38;;;0.68;;
57643;SDS011;43474;46.510;6.686;2024-03-17T15:27:05;1.00;;;0.68;;
57643;SDS011;43474;46.510;6.686;2024-03-17T15:29:31;1.00;;;0.90;;
57643;SDS011;43474;46.510;6.686;2024-03-17T15:31:57;2.22;;;0.88;;
57643;SDS011;43474;46.510;6.686;2024-03-17T15:34:23;1.85;;;1.10;;
57643;SDS011;43474;46.510;6.686;2024-03-17T15:36:49;1.60;;;0.70;;
57643;SDS011;43474;46.510;6.686;2024-03-17T15:39:18;1.10;;;0.70;;
57643;SDS011;43474;46.510;6.686;2024-03-17T15:41:43;1.50;;;1.10;;